Albert Lea, Minnesota
Current Conditions -  °F | °C
As of 2:21 PM on Thursday 27 Nov 2014 (Local Time) from KAEL Reporting Station
Clear Clear  
Wind Chill:   Ceiling: Unl
Heat Index:   Visibility: 10mi
Dew Point: -6°   Wind: 3mph
Humidity: 72%   Direction: 310°NW
Pressure: 30.42"   Gusts: NA
Location:  43.65°N, 93.37°W
Report Text: KAEL 272021Z AUTO 31003KT 10SM CLR M17/M21 A3042 RMK AO2
Loading
Personal Weather Stations






























Interactive Weather Map New forecast layout! Learn more

10-Day Weather Forecast

Advertisements
Track Severe Weather on mobile